Time;durP1;ratioP1;P1;durP2;ratioP2;P2;SDS_P1;SDS_P2;PMS_P1;PMS_P2;Temp;Humidity;BMP_temperature;BMP_pressure;BME280_temperature;BME280_humidity;BME280_pressure;Samples;Min_cycle;Max_cycle;Signal;HPM_P1;HPM_P2
2022/12/16 00:02:26;;;;;;;;;;;;;;;-1.55;97.2627;101181;;;;-77
2022/12/16 00:07:27;;;;;;;;;;;;;;;-1.61;97.10938;101179.9;;;;-75
2022/12/16 00:12:27;;;;;;;;;;;;;;;-1.67;97.15918;101183.2;;;;-76
2022/12/16 00:17:27;;;;;;;;;;;;;;;-1.74;97.20605;101185.4;;;;-76
2022/12/16 00:22:27;;;;;;;;;;;;;;;-1.79;97.07617;101190.8;;;;-76
2022/12/16 00:25:45;;;;;;;2.1;0.8;;;;;;;;;;;;;-76
2022/12/16 00:27:26;;;;;;;;;;;;;;;-1.87;96.95313;101188.8;;;;-77
2022/12/16 00:32:27;;;;;;;;;;;;;;;-1.94;97.06641;101189.5;;;;-76
2022/12/16 00:37:27;;;;;;;;;;;;;;;-1.98;97.12012;101186.8;;;;-76
2022/12/16 00:42:27;;;;;;;;;;;;;;;-2.04;97.10547;101190.4;;;;-76
2022/12/16 00:47:27;;;;;;;;;;;;;;;-2.1;97.22168;101197.4;;;;-76
2022/12/16 00:52:27;;;;;;;;;;;;;;;-2.12;97.09961;101199.8;;;;-76
2022/12/16 00:55:45;;;;;;;1.4;0.6;;;;;;;;;;;;;-76
2022/12/16 00:57:27;;;;;;;;;;;;;;;-2.18;97.04297;101204.1;;;;-76
2022/12/16 01:02:27;;;;;;;;;;;;;;;-2.23;97.02148;101211.7;;;;-77
2022/12/16 01:07:27;;;;;;;;;;;;;;;-2.27;96.95801;101212;;;;-76
2022/12/16 01:12:34;;;;;;;;;;;;;;;-2.34;96.98633;101213.4;;;;-78
2022/12/16 01:17:28;;;;;;;;;;;;;;;-2.41;97.05664;101221.2;;;;-76
2022/12/16 01:22:27;;;;;;;;;;;;;;;-2.43;96.94434;101227.1;;;;-76
2022/12/16 01:25:43;;;;;;;2.1;0.5;;;;;;;;;;;;;-77
2022/12/16 01:27:27;;;;;;;;;;;;;;;-2.49;96.88867;101234.2;;;;-78
2022/12/16 01:32:27;;;;;;;;;;;;;;;-2.52;96.71777;101248.8;;;;-76
2022/12/16 01:37:27;;;;;;;;;;;;;;;-2.56;96.90234;101254.4;;;;-77
2022/12/16 01:42:31;;;;;;;;;;;;;;;-2.57;97.01758;101263.1;;;;-76
2022/12/16 01:47:29;;;;;;;;;;;;;;;-2.61;96.81738;101275.6;;;;-77
2022/12/16 01:52:30;;;;;;;;;;;;;;;-2.63;96.87695;101283;;;;-76
2022/12/16 01:55:44;;;;;;;1.7;0.7;;;;;;;;;;;;;-77
2022/12/16 01:57:29;;;;;;;;;;;;;;;-2.69;96.96875;101277.5;;;;-76
2022/12/16 02:02:27;;;;;;;;;;;;;;;-2.71;96.7627;101281.2;;;;-76
2022/12/16 02:07:28;;;;;;;;;;;;;;;-2.74;96.79688;101284.5;;;;-76
2022/12/16 02:12:30;;;;;;;;;;;;;;;-2.77;96.62988;101293.2;;;;-76
2022/12/16 02:17:30;;;;;;;;;;;;;;;-2.84;96.54102;101291.7;;;;-76
2022/12/16 02:22:31;;;;;;;;;;;;;;;-2.86;96.49219;101290.3;;;;-77
2022/12/16 02:25:55;;;;;;;2;0.7;;;;;;;;;;;;;-78
2022/12/16 02:27:38;;;;;;;;;;;;;;;-2.94;96.49707;101295.5;;;;-77
2022/12/16 02:32:30;;;;;;;;;;;;;;;-2.97;96.49902;101305.5;;;;-76
2022/12/16 02:37:34;;;;;;;;;;;;;;;-3.01;96.40625;101311.4;;;;-76
2022/12/16 02:42:30;;;;;;;;;;;;;;;-3.06;96.41699;101314;;;;-76
2022/12/16 02:47:27;;;;;;;;;;;;;;;-3.1;96.24609;101314.9;;;;-77
2022/12/16 02:52:28;;;;;;;;;;;;;;;-3.16;96.23438;101315;;;;-76
2022/12/16 02:55:49;;;;;;;2.9;0.7;;;;;;;;;;;;;-77
2022/12/16 02:57:41;;;;;;;;;;;;;;;-3.22;96.21973;101317.9;;;;-76
2022/12/16 03:02:29;;;;;;;;;;;;;;;-3.23;96.06641;101323.9;;;;-76
2022/12/16 03:07:28;;;;;;;;;;;;;;;-3.32;96.00488;101329.1;;;;-77
2022/12/16 03:12:27;;;;;;;;;;;;;;;-3.38;95.91602;101335.8;;;;-76
2022/12/16 03:17:27;;;;;;;;;;;;;;;-3.41;95.81445;101343.1;;;;-76
2022/12/16 03:22:30;;;;;;;;;;;;;;;-3.46;95.80371;101349.4;;;;-76
2022/12/16 03:25:39;;;;;;;1.8;0.5;;;;;;;;;;;;;-77
2022/12/16 03:27:28;;;;;;;;;;;;;;;-3.54;95.7002;101356.6;;;;-75
2022/12/16 03:32:33;;;;;;;;;;;;;;;-3.58;95.59375;101361;;;;-76
2022/12/16 03:37:29;;;;;;;;;;;;;;;-3.61;95.45996;101364.5;;;;-77
2022/12/16 03:42:27;;;;;;;;;;;;;;;-3.66;95.56445;101369.7;;;;-76
2022/12/16 03:47:33;;;;;;;;;;;;;;;-3.74;95.30371;101366.2;;;;-77
2022/12/16 03:52:26;;;;;;;;;;;;;;;-3.78;95.30371;101367.9;;;;-77
2022/12/16 03:55:36;;;;;;;5.8;0.4;;;;;;;;;;;;;-77
2022/12/16 03:57:26;;;;;;;;;;;;;;;-3.85;95.06641;101376.7;;;;-77
2022/12/16 04:02:26;;;;;;;;;;;;;;;-3.94;94.93945;101381.8;;;;-77
2022/12/16 04:07:28;;;;;;;;;;;;;;;-4.01;94.80762;101380.6;;;;-77
2022/12/16 04:25:35;;;;;;;1.4;0.4;;;;;;;;;;;;;-76
2022/12/16 04:27:29;;;;;;;;;;;;;;;-4.26;94.50391;101386.8;;;;-76
2022/12/16 04:34:24;;;;;;;;;;;;;;;-4.29;94.32813;101392.3;;;;-77
